Time;durP1;ratioP1;P1;durP2;ratioP2;P2;SDS_P1;SDS_P2;PMS_P1;PMS_P2;Temp;Humidity;BMP_temperature;BMP_pressure;BME280_temperature;BME280_humidity;BME280_pressure;Samples;Min_cycle;Max_cycle;Signal;HPM_P1;HPM_P2
2021/05/04 00:01:17;;;;;;;2.15;0.90;;;17.90;50.90;;;;;;6243368;23;20000;-85
2021/05/04 00:03:43;;;;;;;2.28;0.88;;;17.90;51.00;;;;;;6245153;23;20079;-88
2021/05/04 00:06:09;;;;;;;2.35;0.95;;;17.90;51.10;;;;;;6245790;23;20000;-85
2021/05/04 00:08:35;;;;;;;3.47;0.90;;;17.80;51.20;;;;;;6245827;23;20001;-80
2021/05/04 00:11:00;;;;;;;1.33;0.70;;;17.80;51.30;;;;;;6245803;23;20034;-85
2021/05/04 00:13:26;;;;;;;1.30;0.90;;;17.80;51.40;;;;;;6245724;23;20057;-87
2021/05/04 00:15:52;;;;;;;3.55;1.05;;;17.80;51.50;;;;;;6245456;23;20352;-87
2021/05/04 00:18:17;;;;;;;2.15;0.75;;;17.70;51.40;;;;;;6245548;22;20001;-87
2021/05/04 00:20:43;;;;;;;3.75;1.00;;;17.70;51.60;;;;;;6245668;23;20000;-87
2021/05/04 00:23:09;;;;;;;1.52;0.90;;;17.70;51.70;;;;;;6245460;23;20456;-80
2021/05/04 00:25:34;;;;;;;3.90;0.60;;;17.70;51.70;;;;;;6245933;23;20004;-84
2021/05/04 00:28:00;;;;;;;1.27;0.80;;;17.60;51.80;;;;;;6245089;23;20004;-84
2021/05/04 00:30:26;;;;;;;2.58;0.70;;;17.60;51.90;;;;;;6244874;23;20038;-88
2021/05/04 00:32:51;;;;;;;2.55;1.02;;;17.60;51.90;;;;;;6243974;23;20027;-85
2021/05/04 00:35:17;;;;;;;2.42;0.80;;;17.60;52.00;;;;;;6245365;23;20429;-87
2021/05/04 00:37:42;;;;;;;1.67;0.80;;;17.60;52.00;;;;;;6245247;23;19996;-88
2021/05/04 00:40:09;;;;;;;2.20;1.05;;;17.50;52.00;;;;;;6245347;23;20007;-87
2021/05/04 00:42:35;;;;;;;1.75;0.82;;;17.60;52.20;;;;;;6245525;23;20010;-86
2021/05/04 00:45:00;;;;;;;1.73;0.70;;;17.50;52.20;;;;;;6245118;23;20433;-84
2021/05/04 00:47:26;;;;;;;3.65;1.00;;;17.50;52.20;;;;;;6243780;23;20012;-82
2021/05/04 00:49:51;;;;;;;1.60;0.88;;;17.50;52.20;;;;;;6243519;23;20357;-83
2021/05/04 00:52:17;;;;;;;2.55;0.80;;;17.50;52.30;;;;;;6245268;23;20004;-83
2021/05/04 00:54:44;;;;;;;1.30;0.60;;;17.50;52.30;;;;;;6244893;23;20004;-84
2021/05/04 00:57:11;;;;;;;2.10;0.68;;;17.40;52.30;;;;;;6244767;23;20007;-83
2021/05/04 00:59:37;;;;;;;1.02;0.70;;;17.40;52.40;;;;;;6245241;23;20011;-83
2021/05/04 01:02:03;;;;;;;2.50;0.80;;;17.40;52.40;;;;;;6243267;23;20000;-84
2021/05/04 01:04:31;;;;;;;2.70;0.90;;;17.40;52.50;;;;;;6245127;23;20004;-84
2021/05/04 01:06:56;;;;;;;1.70;0.63;;;17.40;52.60;;;;;;6243434;23;20080;-86
2021/05/04 01:09:22;;;;;;;1.13;0.60;;;17.40;52.70;;;;;;6244627;23;20390;-85
2021/05/04 01:11:48;;;;;;;1.15;0.70;;;17.30;52.60;;;;;;6244573;23;20058;-87
2021/05/04 01:14:14;;;;;;;2.75;0.70;;;17.30;52.70;;;;;;6244530;23;20376;-86
2021/05/04 01:16:42;;;;;;;3.13;1.58;;;17.30;52.70;;;;;;6243279;23;20353;-85
2021/05/04 01:19:09;;;;;;;2.40;0.60;;;17.30;52.70;;;;;;6245183;23;19997;-86
2021/05/04 01:21:34;;;;;;;5.03;0.77;;;17.30;52.80;;;;;;6245074;23;20071;-82
2021/05/04 01:24:00;;;;;;;3.10;0.75;;;17.30;52.80;;;;;;6244548;23;20026;-81
2021/05/04 01:26:25;;;;;;;1.20;0.55;;;17.30;52.90;;;;;;6244857;23;20008;-83
2021/05/04 01:28:51;;;;;;;0.95;0.60;;;17.20;52.80;;;;;;6244450;23;20020;-83
2021/05/04 01:31:17;;;;;;;0.93;0.45;;;17.20;52.90;;;;;;6244389;23;20005;-83
2021/05/04 01:33:42;;;;;;;3.55;0.70;;;17.20;52.90;;;;;;6244820;23;20032;-82
2021/05/04 01:36:08;;;;;;;1.75;0.80;;;17.20;53.00;;;;;;6245001;23;20047;-82
2021/05/04 01:38:33;;;;;;;0.93;0.63;;;17.20;53.00;;;;;;6244660;23;20412;-82
2021/05/04 01:40:59;;;;;;;1.20;0.60;;;17.20;53.10;;;;;;6244702;23;20004;-82
2021/05/04 01:43:25;;;;;;;2.35;0.60;;;17.10;53.20;;;;;;6244284;23;19996;-80
2021/05/04 01:45:50;;;;;;;1.58;0.50;;;17.10;53.70;;;;;;6244361;23;20058;-81
2021/05/04 01:48:16;;;;;;;3.00;0.77;;;17.10;53.20;;;;;;6244604;23;20004;-83
2021/05/04 01:50:41;;;;;;;1.25;0.50;;;17.10;53.30;;;;;;6242879;23;20015;-81
2021/05/04 01:53:07;;;;;;;3.03;0.68;;;17.10;53.30;;;;;;6243323;23;20007;-81
2021/05/04 01:55:33;;;;;;;2.03;0.82;;;17.10;53.30;;;;;;6244421;23;20000;-82
2021/05/04 01:57:58;;;;;;;2.70;0.80;;;17.00;53.40;;;;;;6244209;23;20000;-81
2021/05/04 02:00:24;;;;;;;1.52;0.50;;;17.00;53.40;;;;;;6244001;23;20006;-80
2021/05/04 02:02:50;;;;;;;1.25;0.60;;;17.00;53.50;;;;;;6244447;23;20001;-81
2021/05/04 02:05:15;;;;;;;2.58;0.60;;;17.00;53.50;;;;;;6244378;23;20079;-82
2021/05/04 02:07:42;;;;;;;4.05;0.63;;;17.00;53.50;;;;;;6244414;23;20077;-77
2021/05/04 02:10:08;;;;;;;1.13;0.60;;;17.00;53.60;;;;;;6244305;23;20015;-82
2021/05/04 02:12:34;;;;;;;0.95;0.40;;;17.00;53.70;;;;;;6244402;23;20004;-82
2021/05/04 02:14:59;;;;;;;0.80;0.40;;;17.00;53.70;;;;;;6244178;23;20004;-81
2021/05/04 02:17:25;;;;;;;2.42;0.60;;;16.90;53.60;;;;;;6244232;23;20024;-84
2021/05/04 02:19:51;;;;;;;1.45;0.50;;;16.90;53.70;;;;;;6242734;23;20488;-84
2021/05/04 02:22:17;;;;;;;1.88;0.70;;;16.90;54.30;;;;;;6242379;23;20076;-84
2021/05/04 02:24:43;;;;;;;1.92;0.73;;;16.90;53.80;;;;;;6243657;23;20047;-78
2021/05/04 02:27:08;;;;;;;3.20;0.65;;;16.90;53.70;;;;;;6244602;23;20008;-81
2021/05/04 02:29:34;;;;;;;1.35;0.60;;;16.90;53.90;;;;;;6241863;23;20020;-81
2021/05/04 02:32:00;;;;;;;2.63;0.55;;;16.90;53.90;;;;;;6243987;23;20306;-84
2021/05/04 02:34:25;;;;;;;1.98;0.80;;;16.90;54.00;;;;;;6244073;23;20000;-81
2021/05/04 02:36:51;;;;;;;1.77;0.70;;;16.90;54.10;;;;;;6243689;23;20000;-80
2021/05/04 02:39:16;;;;;;;1.40;0.63;;;16.80;54.10;;;;;;6243987;23;20510;-75
2021/05/04 02:41:42;;;;;;;1.00;0.50;;;16.80;54.10;;;;;;6244191;23;20489;-80
2021/05/04 02:44:08;;;;;;;2.50;0.80;;;16.80;54.20;;;;;;6244012;23;19996;-75
2021/05/04 02:46:35;;;;;;;1.77;0.60;;;16.80;54.20;;;;;;6244336;23;20051;-80
2021/05/04 02:49:00;;;;;;;3.05;0.70;;;16.80;54.30;;;;;;6244112;23;20042;-83
2021/05/04 02:51:26;;;;;;;1.70;0.68;;;16.80;54.40;;;;;;6242373;23;20008;-84
2021/05/04 02:53:52;;;;;;;1.95;1.05;;;16.80;54.40;;;;;;6244085;23;20440;-81
2021/05/04 02:56:18;;;;;;;2.83;0.57;;;16.70;54.40;;;;;;6244018;23;20011;-84
2021/05/04 02:58:44;;;;;;;0.70;0.50;;;16.70;54.30;;;;;;6243783;23;20440;-76
2021/05/04 03:01:10;;;;;;;1.40;0.50;;;16.70;54.60;;;;;;6244193;23;20075;-84
2021/05/04 03:03:36;;;;;;;2.88;1.65;;;16.70;54.60;;;;;;6243669;23;20012;-84
2021/05/04 03:06:03;;;;;;;1.45;0.60;;;16.70;54.60;;;;;;6242397;23;20004;-84
2021/05/04 03:08:29;;;;;;;1.58;0.50;;;16.70;54.70;;;;;;6243859;23;20452;-83
2021/05/04 03:10:55;;;;;;;1.23;0.50;;;16.70;54.80;;;;;;6243736;23;20143;-84
2021/05/04 03:13:25;;;;;;;3.45;0.60;;;16.70;54.90;;;;;;6243687;23;20449;-86
2021/05/04 03:15:52;;;;;;;1.77;0.57;;;16.70;54.80;;;;;;6243907;23;20027;-86
2021/05/04 03:18:17;;;;;;;0.70;0.50;;;16.70;54.90;;;;;;6243887;23;20001;-86
2021/05/04 03:20:44;;;;;;;1.45;0.50;;;16.70;55.00;;;;;;6244088;22;20062;-87
2021/05/04 03:23:09;;;;;;;1.00;0.50;;;16.70;55.10;;;;;;6243901;23;20004;-87
2021/05/04 03:25:35;;;;;;;1.30;0.50;;;16.70;55.20;;;;;;6243815;23;20495;-87
2021/05/04 03:28:01;;;;;;;1.83;0.70;;;16.60;55.20;;;;;;6242378;23;20138;-88
2021/05/04 03:30:27;;;;;;;2.92;0.70;;;16.60;55.10;;;;;;6242291;23;20461;-86
2021/05/04 03:32:53;;;;;;;2.83;0.73;;;16.60;55.20;;;;;;6243941;23;20442;-87
2021/05/04 03:35:19;;;;;;;1.23;0.40;;;16.60;55.20;;;;;;6243892;23;20433;-84
2021/05/04 03:37:46;;;;;;;0.75;0.55;;;16.60;55.30;;;;;;6246371;23;20004;-86
2021/05/04 03:40:12;;;;;;;1.40;0.50;;;16.60;55.50;;;;;;6245593;23;20015;-88
2021/05/04 03:42:37;;;;;;;0.85;0.40;;;16.60;55.70;;;;;;6246184;23;20008;-86
2021/05/04 03:45:05;;;;;;;1.85;0.50;;;16.60;55.60;;;;;;6245738;23;20122;-86
2021/05/04 03:47:31;;;;;;;2.25;0.52;;;16.50;55.60;;;;;;6245834;23;20004;-86
2021/05/04 03:49:56;;;;;;;1.23;0.50;;;16.50;55.80;;;;;;6245756;23;20035;-86
2021/05/04 03:52:22;;;;;;;1.70;0.60;;;16.50;55.90;;;;;;6245780;23;20046;-86
2021/05/04 03:54:48;;;;;;;2.50;0.63;;;16.50;55.80;;;;;;6245557;23;20011;-84
2021/05/04 03:57:13;;;;;;;1.02;0.50;;;16.50;56.00;;;;;;6246255;23;20409;-86
2021/05/04 03:59:40;;;;;;;1.10;0.47;;;16.50;56.10;;;;;;6245424;23;20011;-85
2021/05/04 04:02:06;;;;;;;1.23;0.60;;;16.50;56.10;;;;;;6245630;23;20007;-84
2021/05/04 04:04:31;;;;;;;1.67;0.50;;;16.50;56.20;;;;;;6245323;23;20345;-86
2021/05/04 04:06:57;;;;;;;2.15;0.60;;;16.50;56.20;;;;;;6245196;23;20399;-81
2021/05/04 04:09:22;;;;;;;1.67;0.40;;;16.50;56.20;;;;;;6245261;23;20447;-83
2021/05/04 04:11:48;;;;;;;2.05;0.70;;;16.50;56.30;;;;;;6245556;23;20007;-80
2021/05/04 04:14:14;;;;;;;2.30;0.50;;;16.50;56.40;;;;;;6244129;23;20011;-86
2021/05/04 04:16:39;;;;;;;1.48;0.50;;;16.50;56.40;;;;;;6245377;23;20014;-83
2021/05/04 04:19:05;;;;;;;1.60;0.35;;;16.50;56.60;;;;;;6245380;23;20039;-83
2021/05/04 04:21:31;;;;;;;3.33;0.70;;;16.50;56.50;;;;;;6245079;23;20076;-83
2021/05/04 04:23:56;;;;;;;2.70;0.50;;;16.50;56.60;;;;;;6245033;23;20004;-84
2021/05/04 04:26:22;;;;;;;1.67;0.60;;;16.50;56.70;;;;;;6245151;23;20494;-81
2021/05/04 04:28:48;;;;;;;3.40;0.70;;;16.40;56.60;;;;;;6245524;23;20008;-84
2021/05/04 04:31:13;;;;;;;1.00;0.40;;;16.50;56.70;;;;;;6245012;23;20008;-81
2021/05/04 04:33:39;;;;;;;1.45;0.60;;;16.40;56.70;;;;;;6245141;23;20348;-80
2021/05/04 04:36:05;;;;;;;1.48;0.57;;;16.40;56.80;;;;;;6244629;23;20014;-79
2021/05/04 04:38:30;;;;;;;1.30;0.60;;;16.40;56.90;;;;;;6245254;23;20030;-80
2021/05/04 04:40:56;;;;;;;2.78;0.60;;;16.40;57.00;;;;;;6244760;23;20345;-81
2021/05/04 04:43:21;;;;;;;1.85;0.60;;;16.40;57.00;;;;;;6245046;23;20007;-82
2021/05/04 04:45:47;;;;;;;2.22;1.02;;;16.40;57.00;;;;;;6245696;23;20004;-80
2021/05/04 04:48:13;;;;;;;3.22;0.80;;;16.40;57.00;;;;;;6244721;23;20026;-82
2021/05/04 04:50:39;;;;;;;2.60;0.70;;;16.40;57.20;;;;;;6244915;23;20095;-83
2021/05/04 04:53:04;;;;;;;3.97;0.80;;;16.40;57.10;;;;;;6244967;23;20051;-83
2021/05/04 04:55:30;;;;;;;3.80;1.05;;;16.40;57.10;;;;;;6244626;23;20004;-76
2021/05/04 04:57:56;;;;;;;3.65;0.90;;;16.40;57.30;;;;;;6243604;23;20007;-83
2021/05/04 05:00:22;;;;;;;4.30;0.93;;;16.40;57.30;;;;;;6244452;23;20006;-82
2021/05/04 05:02:47;;;;;;;4.03;0.93;;;16.40;57.30;;;;;;6245378;23;20023;-80
2021/05/04 05:05:13;;;;;;;5.20;1.08;;;16.30;57.30;;;;;;6244625;23;20000;-82
2021/05/04 05:07:39;;;;;;;7.10;1.40;;;16.40;57.30;;;;;;6244695;23;20007;-84
2021/05/04 05:10:05;;;;;;;4.30;1.05;;;16.40;57.30;;;;;;6244631;23;20069;-83
2021/05/04 05:12:31;;;;;;;4.63;1.52;;;16.30;57.20;;;;;;6245070;23;20421;-84
2021/05/04 05:15:00;;;;;;;6.80;1.23;;;16.30;57.30;;;;;;6244887;23;20000;-86
2021/05/04 05:17:25;;;;;;;4.85;1.33;;;16.30;57.40;;;;;;6245081;23;20075;-86
2021/05/04 05:19:51;;;;;;;5.38;1.20;;;16.30;57.30;;;;;;6245256;23;20444;-86
2021/05/04 05:22:17;;;;;;;8.88;1.63;;;16.30;57.20;;;;;;6245229;23;20028;-86
2021/05/04 05:24:42;;;;;;;5.57;1.63;;;16.30;57.30;;;;;;6244625;23;20004;-85
2021/05/04 05:27:08;;;;;;;5.05;2.00;;;16.30;57.30;;;;;;6244622;23;20015;-85
2021/05/04 05:29:34;;;;;;;5.10;1.55;;;16.30;57.30;;;;;;6244530;23;20439;-85
2021/05/04 05:32:01;;;;;;;7.72;1.83;;;16.30;57.80;;;;;;6244721;23;20057;-84
2021/05/04 05:34:27;;;;;;;5.10;1.15;;;16.30;57.30;;;;;;6244209;23;20011;-84
2021/05/04 05:36:54;;;;;;;10.45;2.22;;;16.30;57.20;;;;;;6243091;23;20004;-82
2021/05/04 05:39:20;;;;;;;5.30;1.60;;;16.30;57.20;;;;;;6244967;23;20000;-85
2021/05/04 05:41:46;;;;;;;7.85;1.60;;;16.20;57.20;;;;;;6244677;23;20079;-85
2021/05/04 05:44:13;;;;;;;6.65;1.83;;;16.20;57.20;;;;;;6244465;23;20042;-85
2021/05/04 05:46:40;;;;;;;4.45;1.40;;;16.20;57.20;;;;;;6244091;23;20004;-85
2021/05/04 05:49:06;;;;;;;4.97;1.60;;;16.20;57.30;;;;;;6244195;22;20063;-85
2021/05/04 05:51:31;;;;;;;6.25;1.50;;;16.20;57.30;;;;;;6244423;23;20363;-83
2021/05/04 05:53:57;;;;;;;7.88;2.13;;;16.20;57.10;;;;;;6244493;23;20000;-84
2021/05/04 05:56:23;;;;;;;8.23;2.22;;;16.20;57.20;;;;;;6245010;23;20047;-82
2021/05/04 05:58:49;;;;;;;4.75;1.25;;;16.20;57.10;;;;;;6243899;23;20329;-83
2021/05/04 06:01:14;;;;;;;7.05;1.92;;;16.20;57.00;;;;;;6242537;23;20008;-83
2021/05/04 06:03:40;;;;;;;9.98;2.38;;;16.20;57.20;;;;;;6244171;23;20000;-82
2021/05/04 06:06:06;;;;;;;7.07;1.67;;;16.20;57.20;;;;;;6244148;23;20011;-84
2021/05/04 06:08:31;;;;;;;6.80;2.08;;;16.20;57.20;;;;;;6244274;23;20008;-83
2021/05/04 06:10:57;;;;;;;6.43;1.50;;;16.20;57.20;;;;;;6244503;23;20472;-83
2021/05/04 06:13:23;;;;;;;7.60;2.00;;;16.20;57.30;;;;;;6244515;23;20390;-81
2021/05/04 06:15:49;;;;;;;6.80;2.00;;;16.10;57.20;;;;;;6244223;23;20024;-84
2021/05/04 06:18:15;;;;;;;7.13;1.95;;;16.10;57.30;;;;;;6244225;23;20909;-83
2021/05/04 06:20:41;;;;;;;8.02;2.00;;;16.10;57.30;;;;;;6244122;23;19996;-87
2021/05/04 06:23:07;;;;;;;7.45;2.22;;;16.10;57.30;;;;;;6244279;23;20008;-83
2021/05/04 06:25:33;;;;;;;9.52;2.65;;;16.10;57.40;;;;;;6244311;23;20078;-86
2021/05/04 06:28:04;;;;;;;7.47;2.05;;;16.10;57.40;;;;;;6244060;23;20000;-87
2021/05/04 06:30:34;;;;;;;9.18;3.20;;;16.10;57.40;;;;;;6243678;23;20032;-85
2021/05/04 06:33:10;;;;;;;9.80;2.28;;;16.10;57.40;;;;;;6244216;23;20436;-85
2021/05/04 06:35:40;;;;;;;10.38;2.20;;;16.10;57.50;;;;;;6242223;23;20063;-84
2021/05/04 06:38:06;;;;;;;8.18;2.38;;;16.10;57.50;;;;;;6244460;23;20079;-83
2021/05/04 06:40:32;;;;;;;8.80;2.15;;;16.10;57.50;;;;;;6243879;23;20468;-83
2021/05/04 06:42:59;;;;;;;9.43;2.53;;;16.10;57.40;;;;;;6242370;23;20004;-82
2021/05/04 06:45:25;;;;;;;9.60;2.17;;;16.10;57.50;;;;;;6244089;22;20087;-81
2021/05/04 06:47:51;;;;;;;6.18;2.15;;;16.10;57.60;;;;;;6243887;23;20050;-81
2021/05/04 06:50:17;;;;;;;11.55;2.83;;;16.10;57.50;;;;;;6243926;23;20044;-82
2021/05/04 06:52:43;;;;;;;9.80;2.78;;;16.10;57.60;;;;;;6244143;23;20389;-82
2021/05/04 06:55:10;;;;;;;13.38;2.80;;;16.10;57.70;;;;;;6243893;23;20028;-82
2021/05/04 06:57:35;;;;;;;9.32;2.70;;;16.10;57.60;;;;;;6242303;23;20028;-78
2021/05/04 07:00:01;;;;;;;11.80;2.30;;;16.10;57.70;;;;;;6243654;23;20107;-82
2021/05/04 07:02:27;;;;;;;10.35;3.20;;;16.10;57.60;;;;;;6243977;23;20000;-82
2021/05/04 07:04:53;;;;;;;8.43;1.88;;;16.10;57.70;;;;;;6244761;23;20012;-82
2021/05/04 07:07:18;;;;;;;9.82;2.90;;;16.10;57.70;;;;;;6244207;23;20064;-83
2021/05/04 07:09:45;;;;;;;10.80;2.67;;;16.10;57.80;;;;;;6243466;22;20375;-79
2021/05/04 07:12:11;;;;;;;8.43;2.58;;;16.10;57.80;;;;;;6244739;23;20433;-77
2021/05/04 07:14:38;;;;;;;9.85;2.45;;;16.00;57.80;;;;;;6245467;23;20008;-76
2021/05/04 07:17:04;;;;;;;8.93;2.63;;;16.00;57.80;;;;;;6245420;23;20035;-74
2021/05/04 07:19:29;;;;;;;8.32;2.17;;;16.10;57.70;;;;;;6245180;23;20004;-73
2021/05/04 07:21:56;;;;;;;8.90;2.60;;;16.20;57.30;;;;;;6246224;23;20016;-80
2021/05/04 07:24:22;;;;;;;9.38;2.08;;;16.20;57.30;;;;;;6244990;23;20352;-80
2021/05/04 07:26:48;;;;;;;6.38;1.80;;;16.20;57.20;;;;;;6243134;23;20087;-78
2021/05/04 07:29:13;;;;;;;8.50;2.03;;;16.30;57.00;;;;;;6243506;23;20051;-79
2021/05/04 07:31:40;;;;;;;9.07;2.75;;;16.30;57.10;;;;;;6243869;23;20079;-79
2021/05/04 07:34:05;;;;;;;10.93;2.30;;;16.30;57.20;;;;;;6243372;23;20012;-76
2021/05/04 07:36:31;;;;;;;8.23;2.17;;;16.40;57.20;;;;;;6241482;23;20005;-79
2021/05/04 07:38:58;;;;;;;11.35;2.30;;;16.40;57.20;;;;;;6242396;23;20008;-78
2021/05/04 07:41:24;;;;;;;8.95;2.38;;;16.50;57.20;;;;;;6243481;23;20348;-80
2021/05/04 07:43:49;;;;;;;8.40;2.15;;;16.50;57.10;;;;;;6244845;23;20000;-79
2021/05/04 07:46:15;;;;;;;9.13;1.90;;;16.60;57.60;;;;;;6245246;23;20007;-79
2021/05/04 07:48:41;;;;;;;10.85;2.30;;;16.60;57.00;;;;;;6244583;22;20084;-79
2021/05/04 07:51:07;;;;;;;9.32;1.95;;;16.60;56.90;;;;;;6245312;23;20011;-81
2021/05/04 07:53:33;;;;;;;12.82;2.35;;;16.70;57.00;;;;;;6244189;23;20018;-80
2021/05/04 07:56:02;;;;;;;9.38;2.30;;;16.80;57.30;;;;;;6244945;23;20015;-83
2021/05/04 07:58:28;;;;;;;14.65;2.30;;;16.80;57.50;;;;;;6244634;23;20004;-79
2021/05/04 08:00:54;;;;;;;9.95;3.03;;;16.90;57.40;;;;;;6242812;23;20059;-79
2021/05/04 08:03:20;;;;;;;14.80;3.10;;;16.90;57.10;;;;;;6245213;23;20014;-79
2021/05/04 08:05:45;;;;;;;12.43;2.67;;;16.90;56.90;;;;;;6244130;23;20162;-79
2021/05/04 08:08:13;;;;;;;11.98;2.15;;;17.00;57.30;;;;;;6245246;23;20000;-78
2021/05/04 08:10:38;;;;;;;9.80;2.05;;;17.10;57.60;;;;;;6244584;23;20345;-78
2021/05/04 08:13:04;;;;;;;9.73;2.13;;;17.10;57.30;;;;;;6245343;23;20000;-79
2021/05/04 08:15:32;;;;;;;10.77;2.75;;;17.10;56.90;;;;;;6245265;23;20337;-76
2021/05/04 08:18:03;;;;;;;9.35;2.30;;;17.20;56.70;;;;;;6245602;23;19996;-78
2021/05/04 08:20:32;;;;;;;9.23;2.58;;;17.20;56.70;;;;;;6241505;23;20066;-79
2021/05/04 08:22:59;;;;;;;13.05;2.95;;;17.30;56.80;;;;;;6244574;23;20471;-80
2021/05/04 08:25:25;;;;;;;10.75;2.50;;;17.30;56.70;;;;;;6242487;23;20026;-76
2021/05/04 08:27:51;;;;;;;9.88;2.78;;;17.30;56.30;;;;;;6244329;23;20449;-80
2021/05/04 08:30:17;;;;;;;11.43;2.40;;;17.40;56.40;;;;;;6244282;23;20087;-78
2021/05/04 08:32:43;;;;;;;10.38;2.28;;;17.50;56.90;;;;;;6244172;23;20034;-78
2021/05/04 08:35:09;;;;;;;10.93;2.10;;;17.50;56.60;;;;;;6244416;23;20004;-78
2021/05/04 08:37:35;;;;;;;7.53;2.00;;;17.50;56.40;;;;;;6244444;23;20011;-75
2021/05/04 08:40:01;;;;;;;7.65;1.75;;;17.60;56.40;;;;;;6242767;23;20369;-77
2021/05/04 08:42:26;;;;;;;7.53;2.13;;;17.60;56.20;;;;;;6244559;23;20390;-78
2021/05/04 08:44:52;;;;;;;7.03;1.67;;;17.60;56.10;;;;;;6245127;23;20055;-76
2021/05/04 08:47:19;;;;;;;9.88;2.28;;;17.70;56.00;;;;;;6244428;23;20380;-78
2021/05/04 08:49:46;;;;;;;6.53;1.98;;;17.70;55.60;;;;;;6243063;23;20470;-80
2021/05/04 08:52:12;;;;;;;8.80;1.98;;;17.80;55.60;;;;;;6243890;23;20446;-80
2021/05/04 08:54:37;;;;;;;8.45;1.92;;;17.90;55.50;;;;;;6242884;23;20008;-79
2021/05/04 08:57:03;;;;;;;6.38;1.70;;;17.90;55.40;;;;;;6242796;23;20076;-80
2021/05/04 08:59:29;;;;;;;6.00;1.63;;;17.90;55.20;;;;;;6244996;23;20012;-77
2021/05/04 09:01:55;;;;;;;8.43;1.63;;;18.00;55.20;;;;;;6243449;23;20054;-75
2021/05/04 09:04:30;;;;;;;6.63;1.70;;;18.00;55.20;;;;;;6244132;23;20324;-76
2021/05/04 09:07:02;;;;;;;7.63;1.63;;;18.00;55.10;;;;;;6244646;23;20004;-75
2021/05/04 09:22:45;;;;;;;7.97;1.63;;;18.20;54.50;;;;;;6244112;23;20008;-75
2021/05/04 09:25:29;;;;;;;10.55;1.42;;;18.10;54.50;;;;;;6243521;23;20049;-76
2021/05/04 09:28:00;;;;;;;7.20;1.40;;;18.10;54.30;;;;;;6244745;23;20004;-76
2021/05/04 09:30:25;;;;;;;8.32;2.33;;;18.10;54.10;;;;;;6243820;23;20019;-75
2021/05/04 09:32:51;;;;;;;10.43;1.83;;;18.10;54.00;;;;;;6244790;23;20000;-75
2021/05/04 09:35:17;;;;;;;5.25;1.63;;;18.10;53.90;;;;;;6242599;23;20057;-76
2021/05/04 09:37:45;;;;;;;6.45;1.77;;;18.10;53.80;;;;;;6244626;23;20004;-77
2021/05/04 09:40:20;;;;;;;6.07;1.75;;;18.10;53.70;;;;;;6244067;23;20062;-78
2021/05/04 09:42:46;;;;;;;4.72;1.38;;;18.10;53.60;;;;;;6244427;23;20008;-78
2021/05/04 09:45:25;;;;;;;6.65;1.73;;;18.20;53.50;;;;;;6244070;23;20035;-79
2021/05/04 09:48:37;;;;;;;6.60;1.45;;;18.10;53.40;;;;;;6242083;23;20055;-79
2021/05/04 09:51:05;;;;;;;9.63;1.95;;;18.10;53.30;;;;;;6156656;23;20017;-80
2021/05/04 09:56:12;;;;;;;5.18;1.52;;;18.20;53.70;;;;;;6244259;22;20003;-79
2021/05/04 09:58:41;;;;;;;7.78;1.52;;;18.20;53.00;;;;;;6244389;23;20011;-79
2021/05/04 10:01:14;;;;;;;6.35;1.50;;;18.10;52.90;;;;;;6243889;23;20406;-78
2021/05/04 10:03:42;;;;;;;5.68;1.58;;;18.10;52.90;;;;;;6244147;23;19996;-78
2021/05/04 10:06:10;;;;;;;7.45;1.67;;;18.10;53.00;;;;;;6244010;23;20340;-77
2021/05/04 10:08:37;;;;;;;6.18;1.58;;;18.10;53.00;;;;;;6243950;23;20027;-80
2021/05/04 10:11:14;;;;;;;4.75;1.17;;;18.10;52.90;;;;;;6244732;23;20039;-83
2021/05/04 10:13:41;;;;;;;4.85;1.10;;;18.10;53.40;;;;;;6242548;23;20007;-78
2021/05/04 10:16:08;;;;;;;5.93;0.90;;;18.00;53.40;;;;;;6243402;23;20494;-78
2021/05/04 10:18:35;;;;;;;7.63;1.40;;;18.10;53.20;;;;;;6244960;23;20004;-79
2021/05/04 10:21:03;;;;;;;10.63;1.73;;;18.10;53.30;;;;;;6243848;23;20448;-80
2021/05/04 10:23:30;;;;;;;7.15;2.83;;;18.10;53.20;;;;;;6243626;23;20000;-77
2021/05/04 10:26:03;;;;;;;11.98;4.25;;;18.10;53.10;;;;;;6243295;23;20476;-80
2021/05/04 10:28:34;;;;;;;8.90;3.50;;;18.20;53.20;;;;;;6243734;23;20000;-79
2021/05/04 10:31:08;;;;;;;9.10;3.47;;;18.20;53.10;;;;;;6242364;23;20059;-80
2021/05/04 10:33:37;;;;;;;10.05;3.65;;;18.30;53.70;;;;;;6243549;23;20003;-79
2021/05/04 10:36:04;;;;;;;12.32;7.20;;;18.30;53.10;;;;;;6241733;23;20008;-77
2021/05/04 10:39:05;;;;;;;15.13;8.43;;;18.30;53.20;;;;;;6243544;23;20007;-74
2021/05/04 10:41:55;;;;;;;15.05;8.77;;;18.40;53.50;;;;;;6180194;23;20036;-79
2021/05/04 10:44:21;;;;;;;20.70;8.43;;;18.40;53.70;;;;;;6241058;23;20064;-79
2021/05/04 10:46:46;;;;;;;16.02;8.88;;;18.50;53.60;;;;;;6243512;23;20008;-78
2021/05/04 10:49:39;;;;;;;17.40;8.80;;;18.50;53.50;;;;;;6243859;23;20344;-79
2021/05/04 10:52:05;;;;;;;16.35;10.02;;;18.50;53.60;;;;;;6244616;23;20441;-78
2021/05/04 10:54:54;;;;;;;21.25;9.15;;;18.60;53.60;;;;;;6243275;23;20079;-78
2021/05/04 10:57:20;;;;;;;20.42;10.15;;;18.60;53.60;;;;;;6241578;23;20000;-78
2021/05/04 10:59:46;;;;;;;23.65;11.50;;;18.70;53.80;;;;;;6243543;22;20015;-76
2021/05/04 11:02:15;;;;;;;19.67;10.75;;;18.70;54.90;;;;;;6241515;23;20152;-79
2021/05/04 11:04:43;;;;;;;18.80;10.15;;;18.80;55.30;;;;;;6244165;23;20061;-80
2021/05/04 11:07:09;;;;;;;18.48;9.43;;;18.80;55.20;;;;;;6243150;23;20071;-74
2021/05/04 11:09:40;;;;;;;17.80;9.10;;;18.90;54.40;;;;;;6246105;23;20008;-75
2021/05/04 11:12:29;;;;;;;19.25;8.55;;;18.90;54.10;;;;;;6243706;23;20000;-74
2021/05/04 11:15:35;;;;;;;13.20;6.78;;;18.90;54.00;;;;;;6243573;23;20008;-75
2021/05/04 11:18:00;;;;;;;18.33;7.38;;;19.00;53.80;;;;;;6243451;22;20011;-76
2021/05/04 11:20:32;;;;;;;12.23;6.38;;;19.00;53.60;;;;;;6243464;23;20511;-72
2021/05/04 11:22:58;;;;;;;11.55;6.25;;;19.10;53.60;;;;;;6243479;23;19996;-74
2021/05/04 11:25:39;;;;;;;14.57;5.95;;;19.10;53.50;;;;;;6243885;23;20008;-75
2021/05/04 11:28:06;;;;;;;8.15;4.60;;;19.10;53.50;;;;;;6243112;23;20011;-81
2021/05/04 11:30:33;;;;;;;13.93;4.90;;;19.10;53.50;;;;;;6241527;23;20027;-77
2021/05/04 11:32:59;;;;;;;11.90;4.45;;;19.20;53.40;;;;;;6243487;23;20535;-77
2021/05/04 11:35:36;;;;;;;13.00;4.93;;;19.20;53.20;;;;;;6242324;23;20028;-79
2021/05/04 11:38:01;;;;;;;13.23;4.40;;;19.20;53.10;;;;;;6243602;23;20394;-80
2021/05/04 11:40:28;;;;;;;5.45;3.30;;;19.30;53.00;;;;;;6242929;23;20024;-80
2021/05/04 11:42:57;;;;;;;13.07;4.82;;;19.30;52.90;;;;;;6243531;23;20083;-79
2021/05/04 11:45:31;;;;;;;13.18;4.82;;;19.40;52.70;;;;;;6243092;23;20011;-75
2021/05/04 11:48:07;;;;;;;8.73;4.00;;;19.40;52.50;;;;;;6242665;23;20004;-78
2021/05/04 11:50:41;;;;;;;10.13;3.78;;;19.40;52.30;;;;;;6241876;23;20348;-78
2021/05/04 11:53:16;;;;;;;9.25;2.97;;;19.50;52.20;;;;;;6243429;23;20032;-79
2021/05/04 11:55:44;;;;;;;;;;;19.50;52.30;;;;;;6243845;23;20023;-77
2021/05/04 11:58:29;;;;;;;6.57;2.60;;;19.50;52.10;;;;;;6244895;22;20320;-78
2021/05/04 12:00:59;;;;;;;11.00;2.45;;;19.50;51.70;;;;;;6244134;23;20004;-78
2021/05/04 12:03:25;;;;;;;7.80;2.60;;;19.50;51.50;;;;;;6245420;22;20000;-78
2021/05/04 12:05:52;;;;;;;11.60;3.47;;;19.60;51.60;;;;;;6245447;23;20000;-80
2021/05/04 12:08:17;;;;;;;17.33;4.20;;;19.60;51.40;;;;;;6245260;23;20000;-79
2021/05/04 12:10:47;;;;;;;11.93;4.00;;;19.60;51.70;;;;;;6245323;23;20022;-78
2021/05/04 12:13:24;;;;;;;14.05;4.20;;;19.60;51.70;;;;;;6244703;23;20340;-80
2021/05/04 12:15:52;;;;;;;13.93;3.13;;;19.60;51.80;;;;;;6243597;23;20008;-79
2021/05/04 12:18:19;;;;;;;10.13;4.00;;;19.60;51.80;;;;;;6244934;23;20000;-79
2021/05/04 12:20:53;;;;;;;12.05;4.05;;;19.60;52.10;;;;;;6245279;23;20055;-79
2021/05/04 12:23:27;;;;;;;9.32;3.42;;;19.60;52.30;;;;;;6243531;23;20050;-79
2021/05/04 12:26:03;;;;;;;7.43;3.17;;;19.60;53.80;;;;;;6244708;23;20062;-80
2021/05/04 12:28:47;;;;;;;8.45;3.03;;;19.60;54.50;;;;;;6244110;23;20007;-80
2021/05/04 12:31:20;;;;;;;6.50;2.72;;;19.60;54.20;;;;;;6243649;23;20058;-79
2021/05/04 12:33:50;;;;;;;9.93;2.78;;;19.60;54.10;;;;;;6244056;23;20088;-80
2021/05/04 12:36:56;;;;;;;7.93;2.78;;;19.60;53.90;;;;;;6245065;23;20004;-77
2021/05/04 12:39:28;;;;;;;10.10;3.22;;;19.60;53.90;;;;;;6181257;23;20035;-80
2021/05/04 12:41:57;;;;;;;9.95;2.38;;;19.60;53.70;;;;;;6231413;23;20015;-75
2021/05/04 12:44:30;;;;;;;8.15;2.35;;;19.60;53.50;;;;;;6244811;23;20012;-77
2021/05/04 12:47:05;;;;;;;6.93;2.03;;;19.50;53.20;;;;;;6244799;23;20024;-78
2021/05/04 12:49:38;;;;;;;;;;;19.60;53.20;;;;;;6245449;23;20008;-77
2021/05/04 12:52:22;;;;;;;6.10;1.95;;;19.50;53.10;;;;;;6244723;22;19954;-79
2021/05/04 12:54:48;;;;;;;9.10;2.47;;;19.60;52.90;;;;;;6244253;23;20004;-80
2021/05/04 12:57:26;;;;;;;4.90;2.20;;;19.50;52.80;;;;;;6244423;23;20546;-79
2021/05/04 12:59:53;;;;;;;9.43;2.08;;;19.50;52.50;;;;;;6244625;23;20004;-81
2021/05/04 13:02:28;;;;;;;6.63;1.83;;;19.60;52.80;;;;;;6243796;23;20379;-82
2021/05/04 13:05:07;;;;;;;142.90;7.05;;;19.60;53.10;;;;;;6244022;23;20031;-78